createdAt,value
2023-05-15T00:04:38.183Z,99.90
2023-05-15T00:09:41.508Z,99.90
2023-05-15T00:14:46.574Z,99.90
2023-05-15T00:19:49.997Z,99.90
2023-05-15T00:24:53.987Z,99.90
2023-05-15T00:29:58.646Z,99.90
2023-05-15T00:35:01.998Z,99.90
2023-05-15T00:40:10.916Z,99.90
2023-05-15T00:45:16.616Z,99.90
2023-05-15T00:50:21.125Z,99.90
2023-05-15T00:55:26.790Z,99.90
2023-05-15T01:00:34.580Z,99.90
2023-05-15T01:05:38.242Z,99.90
2023-05-15T01:10:45.611Z,99.90
2023-05-15T01:15:50.784Z,99.90
2023-05-15T01:21:18.228Z,99.90
2023-05-15T01:26:58.530Z,99.90
2023-05-15T01:32:07.038Z,99.90
2023-05-15T01:37:14.108Z,99.90
2023-05-15T01:42:19.538Z,99.90
2023-05-15T01:47:31.821Z,99.90
2023-05-15T01:52:38.892Z,99.90
2023-05-15T01:57:43.319Z,99.90
2023-05-15T02:02:50.216Z,99.90
2023-05-15T02:07:55.769Z,99.90
2023-05-15T02:13:01.077Z,99.90
2023-05-15T02:18:06.484Z,99.90
2023-05-15T02:23:09.893Z,99.90
2023-05-15T02:28:21.289Z,99.90
2023-05-15T02:33:31.719Z,99.90
2023-05-15T02:38:40.962Z,99.90
2023-05-15T02:43:45.709Z,99.90
2023-05-15T02:48:51.732Z,99.90
2023-05-15T02:53:56.376Z,99.90
2023-05-15T02:58:59.896Z,99.90
2023-05-15T03:04:04.987Z,99.90
2023-05-15T03:09:08.520Z,99.90
2023-05-15T03:14:14.079Z,99.90
2023-05-15T03:19:18.966Z,99.90
2023-05-15T03:24:22.314Z,99.90
2023-05-15T03:29:26.519Z,99.90
2023-05-15T03:34:31.370Z,99.90
2023-05-15T03:39:34.754Z,99.90
2023-05-15T03:44:38.515Z,99.90
2023-05-15T03:49:43.950Z,99.90
2023-05-15T03:54:47.479Z,99.90
2023-05-15T03:59:50.874Z,99.90
2023-05-15T04:04:55.935Z,99.90
2023-05-15T04:10:01.586Z,99.90
2023-05-15T04:15:15.787Z,99.90
2023-05-15T04:20:22.711Z,99.90
2023-05-15T04:25:28.049Z,99.90
2023-05-15T04:30:31.683Z,99.90
2023-05-15T04:35:36.316Z,99.90
2023-05-15T04:40:40.144Z,99.90
2023-05-15T04:45:43.529Z,99.90
2023-05-15T04:50:48.134Z,99.90
2023-05-15T04:55:51.645Z,99.90
2023-05-15T05:00:55.551Z,99.90
2023-05-15T05:06:00.392Z,99.90
2023-05-15T05:11:04.686Z,99.90
2023-05-15T05:16:08.235Z,99.90
2023-05-15T05:21:13.149Z,96.90
2023-05-15T05:26:16.829Z,93.60
2023-05-15T05:31:20.629Z,85.30
2023-05-15T05:36:25.628Z,82.70
2023-05-15T05:41:28.926Z,76.90
2023-05-15T05:46:32.583Z,73.70
2023-05-15T05:51:37.471Z,69.20
2023-05-15T05:56:41.521Z,65.40
2023-05-15T06:01:45.090Z,61.70
2023-05-15T06:06:50.224Z,64.00
2023-05-15T06:11:53.701Z,60.30
2023-05-15T06:16:57.462Z,59.90
2023-05-15T06:22:02.182Z,60.70
2023-05-15T06:27:05.682Z,69.40
2023-05-15T06:32:09.542Z,77.00
2023-05-15T06:37:14.464Z,68.60
2023-05-15T06:42:17.642Z,66.20
2023-05-15T06:47:22.860Z,64.70
2023-05-15T06:52:28.634Z,60.40
2023-05-15T06:57:33.745Z,65.40
2023-05-15T07:02:37.155Z,68.40
2023-05-15T07:07:43.012Z,67.20
2023-05-15T07:12:47.149Z,66.40
2023-05-15T07:17:51.735Z,66.70
2023-05-15T07:22:57.339Z,67.30
2023-05-15T07:28:00.682Z,68.60
2023-05-15T07:33:04.340Z,69.70
2023-05-15T07:38:09.907Z,70.30
2023-05-15T07:43:13.483Z,66.20
2023-05-15T07:48:18.887Z,64.50
2023-05-15T07:53:23.767Z,63.70
2023-05-15T07:58:29.172Z,66.70
2023-05-15T08:03:33.947Z,70.50
2023-05-15T08:08:39.307Z,71.70
2023-05-15T08:13:42.777Z,68.90
2023-05-15T08:18:47.137Z,71.80
2023-05-15T08:23:53.770Z,72.10
2023-05-15T08:28:57.388Z,72.30
2023-05-15T08:34:01.253Z,70.00
2023-05-15T08:39:06.130Z,74.60
2023-05-15T08:44:11.297Z,76.30
2023-05-15T08:49:25.266Z,76.00
2023-05-15T08:54:31.047Z,78.10
2023-05-15T08:59:35.006Z,78.70
2023-05-15T09:04:38.411Z,76.80
2023-05-15T09:09:45.248Z,73.40
2023-05-15T09:14:48.772Z,71.50
2023-05-15T09:19:52.572Z,75.10
2023-05-15T09:24:58.213Z,70.60
2023-05-15T09:30:10.175Z,68.30
2023-05-15T09:35:29.996Z,64.30
2023-05-15T09:40:35.894Z,65.90
2023-05-15T09:45:39.332Z,66.50
2023-05-15T09:50:42.957Z,67.40
2023-05-15T09:55:48.592Z,70.40
2023-05-15T10:00:51.976Z,65.20
2023-05-15T10:06:01.081Z,67.30
2023-05-15T10:11:07.091Z,65.80
2023-05-15T10:16:11.199Z,67.00
2023-05-15T10:21:18.346Z,67.50
2023-05-15T10:26:27.292Z,71.50
2023-05-15T10:31:31.813Z,70.70
2023-05-15T10:36:36.836Z,70.20
2023-05-15T10:41:42.801Z,72.30
2023-05-15T10:46:47.730Z,70.30
2023-05-15T10:51:53.216Z,70.90
2023-05-15T10:56:58.459Z,75.30
2023-05-15T11:02:21.228Z,73.20
2023-05-15T11:07:25.853Z,71.50
2023-05-15T11:12:55.622Z,70.20
2023-05-15T11:18:03.477Z,72.50
2023-05-15T11:23:07.772Z,73.30
2023-05-15T11:28:23.169Z,70.10
2023-05-15T11:33:30.353Z,68.50
2023-05-15T11:38:39.874Z,70.50
2023-05-15T11:43:45.813Z,65.20
2023-05-15T11:48:50.748Z,66.60
2023-05-15T11:53:56.754Z,63.90
2023-05-15T11:59:02.486Z,59.80
2023-05-15T12:04:12.921Z,58.70
2023-05-15T12:09:19.138Z,57.70
2023-05-15T12:14:28.932Z,56.70
2023-05-15T12:19:33.424Z,57.30
2023-05-15T12:24:39.781Z,56.20
2023-05-15T12:29:45.146Z,54.30
2023-05-15T12:34:49.520Z,54.10
2023-05-15T12:39:54.814Z,52.90
2023-05-15T12:45:00.471Z,50.00
2023-05-15T12:50:13.049Z,51.00
2023-05-15T12:55:17.397Z,49.50
2023-05-15T13:00:23.211Z,45.10
2023-05-15T13:05:27.440Z,48.50
2023-05-15T13:10:33.027Z,47.30
2023-05-15T13:15:39.401Z,50.20
2023-05-15T13:20:45.187Z,45.60
2023-05-15T13:25:48.470Z,47.10
2023-05-15T13:30:53.624Z,46.30
2023-05-15T13:41:18.410Z,49.90
2023-05-15T13:46:24.482Z,53.90
2023-05-15T13:51:38.607Z,70.60
2023-05-15T13:57:00.880Z,77.40
2023-05-15T14:02:09.772Z,80.20
2023-05-15T14:07:14.991Z,84.60
2023-05-15T14:12:19.752Z,86.50
2023-05-15T14:17:24.996Z,85.70
2023-05-15T14:22:28.554Z,84.40
2023-05-15T14:27:32.320Z,80.70
2023-05-15T14:32:37.465Z,80.40
2023-05-15T14:37:41.034Z,80.20
2023-05-15T14:42:44.554Z,81.40
2023-05-15T14:47:49.575Z,84.00
2023-05-15T14:52:53.839Z,84.00
2023-05-15T14:57:58.946Z,83.80
2023-05-15T15:03:04.948Z,84.20
2023-05-15T15:08:10.137Z,82.40
2023-05-15T15:13:14.113Z,83.90
2023-05-15T15:18:20.698Z,86.70
2023-05-15T15:23:24.152Z,86.20
2023-05-15T15:28:29.643Z,85.80
2023-05-15T15:33:34.361Z,84.00
2023-05-15T15:38:41.856Z,78.60
2023-05-15T15:43:45.414Z,75.80
2023-05-15T15:48:50.137Z,75.20
2023-05-15T15:53:53.525Z,76.10
2023-05-15T15:58:56.845Z,78.20
2023-05-15T16:04:02.315Z,79.20
2023-05-15T16:09:05.769Z,82.00
2023-05-15T16:14:09.454Z,81.00
2023-05-15T16:19:14.519Z,80.80
2023-05-15T16:24:18.169Z,79.70
2023-05-15T16:29:24.009Z,80.80
2023-05-15T16:34:28.760Z,82.50
2023-05-15T16:39:38.564Z,83.10
2023-05-15T16:44:42.011Z,83.40
2023-05-15T16:49:49.155Z,83.40
2023-05-15T16:54:53.561Z,86.10
2023-05-15T16:59:57.062Z,88.60
2023-05-15T17:05:01.783Z,88.80
2023-05-15T17:10:06.170Z,89.60
2023-05-15T17:15:10.128Z,90.90
2023-05-15T17:20:15.230Z,91.00
2023-05-15T17:25:18.548Z,91.50
2023-05-15T17:30:22.088Z,91.70
2023-05-15T17:35:27.584Z,92.90
2023-05-15T17:40:31.792Z,92.50
2023-05-15T17:45:35.285Z,93.50
2023-05-15T17:50:40.010Z,93.50
2023-05-15T17:55:44.301Z,94.40
2023-05-15T18:00:47.816Z,94.90
2023-05-15T18:05:52.782Z,95.50
2023-05-15T18:10:56.219Z,96.10
2023-05-15T18:16:56.880Z,96.90
2023-05-15T18:22:03.349Z,98.50
2023-05-15T18:27:07.207Z,99.60
2023-05-15T18:32:11.460Z,99.90
2023-05-15T18:37:16.790Z,99.90
2023-05-15T18:42:20.138Z,99.90
2023-05-15T18:47:23.987Z,99.90
2023-05-15T18:52:28.952Z,99.90
2023-05-15T18:57:32.384Z,99.90
2023-05-15T19:02:37.831Z,99.90
2023-05-15T19:07:42.775Z,99.90
2023-05-15T19:12:46.370Z,99.90
2023-05-15T19:17:49.867Z,99.90
2023-05-15T19:22:55.042Z,99.90
2023-05-15T19:27:58.600Z,99.90
2023-05-15T19:33:02.413Z,99.90
2023-05-15T19:38:07.598Z,99.90
2023-05-15T19:43:11.484Z,99.90
2023-05-15T19:48:15.013Z,99.90
2023-05-15T19:53:20.214Z,99.90
2023-05-15T19:58:23.504Z,99.90
2023-05-15T20:03:33.309Z,99.90
2023-05-15T20:08:38.981Z,99.90
2023-05-15T20:13:42.396Z,99.90
2023-05-15T20:18:47.998Z,99.90
2023-05-15T20:23:52.721Z,99.90
2023-05-15T20:28:56.262Z,99.90
2023-05-15T20:34:00.786Z,99.90
2023-05-15T20:39:07.210Z,99.90
2023-05-15T20:44:10.973Z,99.90
2023-05-15T20:49:14.404Z,99.90
2023-05-15T20:54:19.245Z,99.90
2023-05-15T20:59:22.826Z,99.90
2023-05-15T21:04:26.381Z,99.90
2023-05-15T21:09:31.681Z,99.90
2023-05-15T21:14:35.593Z,99.90
2023-05-15T21:19:39.009Z,99.90
2023-05-15T21:24:43.709Z,99.90
2023-05-15T21:29:47.128Z,99.90
2023-05-15T21:34:50.534Z,99.90
2023-05-15T21:39:55.335Z,99.90
2023-05-15T21:44:59.494Z,99.90
2023-05-15T21:50:02.907Z,99.90
2023-05-15T21:55:09.003Z,99.90
2023-05-15T22:00:14.085Z,99.90
2023-05-15T22:05:21.134Z,99.90
2023-05-15T22:10:26.246Z,99.90
2023-05-15T22:15:30.062Z,99.90
2023-05-15T22:20:34.192Z,99.90
2023-05-15T22:25:39.340Z,99.90
2023-05-15T22:30:42.705Z,99.90
2023-05-15T22:35:46.279Z,99.90
2023-05-15T22:40:52.405Z,99.90
2023-05-15T22:45:56.211Z,99.90
2023-05-15T22:50:59.638Z,99.90
2023-05-15T22:56:04.468Z,99.90
2023-05-15T23:01:07.859Z,99.90
2023-05-15T23:06:16.475Z,99.90
2023-05-15T23:11:21.434Z,99.90
2023-05-15T23:16:25.632Z,99.90
2023-05-15T23:21:29.122Z,99.90
2023-05-15T23:26:33.776Z,99.90
2023-05-15T23:31:37.102Z,99.90
2023-05-15T23:36:40.767Z,99.90
2023-05-15T23:41:45.558Z,99.90
2023-05-15T23:46:48.969Z,99.90
2023-05-15T23:51:52.317Z,99.90
2023-05-15T23:56:56.923Z,99.90
